Time;durP1;ratioP1;P1;durP2;ratioP2;P2;SDS_P1;SDS_P2;PMS_P1;PMS_P2;Temp;Humidity;BMP_temperature;BMP_pressure;BME280_temperature;BME280_humidity;BME280_pressure;Samples;Min_cycle;Max_cycle;Signal;HPM_P1;HPM_P2
2023/04/17 00:01:09;;;;;;;42.28;19.63;;;;;;;;;;2053456;28;20402;-77
2023/04/17 00:02:30;;;;;;;46.53;20.50;;;;;;;;;;2048887;29;20035;-78
2023/04/17 00:03:51;;;;;;;42.17;20.00;;;;;;;;;;2046978;28;20038;-76
2023/04/17 00:05:12;;;;;;;43.40;21.60;;;;;;;;;;2044414;28;20111;-77
2023/04/17 00:06:34;;;;;;;41.15;20.70;;;;;;;;;;2054278;28;20247;-77
2023/04/17 00:07:55;;;;;;;42.97;19.88;;;;;;;;;;2048780;29;20027;-78
2023/04/17 00:09:16;;;;;;;38.42;19.33;;;;;;;;;;2048944;29;20031;-78
2023/04/17 00:10:37;;;;;;;38.65;20.85;;;;;;;;;;2044982;29;20086;-77
2023/04/17 00:11:58;;;;;;;44.75;21.35;;;;;;;;;;2041153;29;20103;-77
2023/04/17 00:13:19;;;;;;;38.60;20.02;;;;;;;;;;2044994;29;20065;-78
2023/04/17 00:14:40;;;;;;;47.78;21.65;;;;;;;;;;2047405;28;20035;-78
2023/04/17 00:16:01;;;;;;;40.88;21.23;;;;;;;;;;2044652;29;20090;-78
2023/04/17 00:17:22;;;;;;;40.17;20.65;;;;;;;;;;2048953;28;20376;-78
2023/04/17 00:18:43;;;;;;;42.88;20.63;;;;;;;;;;2052405;28;20168;-77
2023/04/17 00:20:11;;;;;;;39.08;19.65;;;;;;;;;;2047831;28;20040;-78
2023/04/17 00:21:32;;;;;;;41.65;21.85;;;;;;;;;;2045159;28;20071;-78
2023/04/17 00:22:53;;;;;;;42.47;20.67;;;;;;;;;;2039524;29;20024;-77
2023/04/17 00:24:14;;;;;;;37.00;19.20;;;;;;;;;;2046248;29;20035;-76
2023/04/17 00:25:35;;;;;;;40.90;20.30;;;;;;;;;;2045288;28;20070;-76
2023/04/17 00:26:56;;;;;;;45.20;21.13;;;;;;;;;;2047677;28;20491;-77
2023/04/17 00:28:17;;;;;;;39.58;20.67;;;;;;;;;;2049144;28;20047;-77
2023/04/17 00:29:38;;;;;;;44.22;21.58;;;;;;;;;;2046449;29;20031;-77
2023/04/17 00:30:58;;;;;;;44.38;21.60;;;;;;;;;;2041195;28;20059;-77
2023/04/17 00:32:19;;;;;;;39.72;21.08;;;;;;;;;;2048936;29;20043;-77
2023/04/17 00:33:40;;;;;;;45.78;21.98;;;;;;;;;;2047466;29;20039;-78
2023/04/17 00:35:01;;;;;;;45.33;21.52;;;;;;;;;;2041809;29;20490;-78
2023/04/17 00:36:22;;;;;;;38.75;20.60;;;;;;;;;;2049913;28;20030;-77
2023/04/17 00:37:52;;;;;;;45.53;21.60;;;;;;;;;;2047774;29;20032;-78
2023/04/17 00:39:13;;;;;;;44.85;20.40;;;;;;;;;;2046486;29;20031;-77
2023/04/17 00:40:46;;;;;;;38.65;19.95;;;;;;;;;;2048496;29;20032;-77
2023/04/17 00:42:07;;;;;;;41.22;20.48;;;;;;;;;;2041212;29;20069;-77
2023/04/17 00:43:42;;;;;;;38.55;20.13;;;;;;;;;;2040694;29;20488;-78
2023/04/17 00:45:04;;;;;;;38.38;21.55;;;;;;;;;;2047715;28;20055;-78
2023/04/17 00:46:34;;;;;;;38.22;21.30;;;;;;;;;;2046888;29;20123;-77
2023/04/17 00:48:05;;;;;;;41.97;21.20;;;;;;;;;;2046875;29;20035;-78
2023/04/17 00:49:27;;;;;;;43.67;21.30;;;;;;;;;;2046664;29;20027;-78
2023/04/17 00:50:54;;;;;;;43.67;21.25;;;;;;;;;;2049647;28;20035;-78
2023/04/17 00:52:19;;;;;;;36.25;20.92;;;;;;;;;;2047611;28;20484;-78
2023/04/17 00:53:46;;;;;;;44.92;20.95;;;;;;;;;;2048928;29;20442;-78
2023/04/17 00:55:07;;;;;;;38.08;21.17;;;;;;;;;;2045712;28;20043;-77
2023/04/17 00:56:28;;;;;;;41.80;22.05;;;;;;;;;;2047035;28;20039;-77
2023/04/17 00:57:49;;;;;;;43.45;21.02;;;;;;;;;;2049556;28;20599;-76
2023/04/17 00:59:11;;;;;;;39.50;20.75;;;;;;;;;;2047600;29;20035;-76
2023/04/17 01:00:33;;;;;;;38.55;21.33;;;;;;;;;;2043378;29;20056;-79
2023/04/17 01:01:54;;;;;;;46.47;22.15;;;;;;;;;;2041822;28;20035;-80
2023/04/17 01:03:16;;;;;;;61.78;25.80;;;;;;;;;;2052437;23;20123;-73
2023/04/17 01:04:37;;;;;;;43.35;22.23;;;;;;;;;;2039618;29;20494;-71
2023/04/17 01:05:58;;;;;;;44.05;23.13;;;;;;;;;;2032090;29;20044;-73
2023/04/17 01:07:18;;;;;;;42.13;21.35;;;;;;;;;;2039009;29;20114;-72
2023/04/17 01:08:41;;;;;;;40.42;19.98;;;;;;;;;;2040736;29;20040;-73
2023/04/17 01:10:02;;;;;;;40.25;20.85;;;;;;;;;;2039632;29;20036;-73
2023/04/17 01:11:23;;;;;;;44.22;21.63;;;;;;;;;;2039145;29;20032;-73
2023/04/17 01:12:47;;;;;;;40.78;22.27;;;;;;;;;;2038638;29;20023;-73
2023/04/17 01:14:08;;;;;;;38.97;21.45;;;;;;;;;;2033630;29;20041;-72
2023/04/17 01:15:30;;;;;;;39.05;23.08;;;;;;;;;;2034779;29;20043;-73
2023/04/17 01:16:50;;;;;;;44.10;21.27;;;;;;;;;;2039496;29;20032;-73
2023/04/17 01:18:11;;;;;;;41.30;21.75;;;;;;;;;;2037269;29;20047;-73
2023/04/17 01:19:32;;;;;;;37.95;21.05;;;;;;;;;;2041003;29;20487;-73
2023/04/17 01:20:53;;;;;;;48.65;24.13;;;;;;;;;;2035776;29;20099;-73
2023/04/17 01:22:15;;;;;;;41.78;21.98;;;;;;;;;;2040389;29;20031;-73
2023/04/17 01:23:43;;;;;;;42.85;22.88;;;;;;;;;;2039980;29;20519;-73
2023/04/17 01:25:04;;;;;;;42.05;21.98;;;;;;;;;;2044784;28;20595;-73
2023/04/17 01:26:26;;;;;;;41.73;21.93;;;;;;;;;;2036837;29;20046;-73
2023/04/17 01:27:47;;;;;;;42.50;22.75;;;;;;;;;;2036344;29;20420;-73
2023/04/17 01:29:08;;;;;;;45.20;23.80;;;;;;;;;;2033253;29;20032;-74
2023/04/17 01:30:29;;;;;;;44.08;21.63;;;;;;;;;;2036319;29;20020;-74
2023/04/17 01:31:50;;;;;;;41.90;23.45;;;;;;;;;;2034121;29;20028;-74
2023/04/17 01:33:10;;;;;;;48.60;22.38;;;;;;;;;;2040013;29;20425;-73
2023/04/17 01:34:31;;;;;;;42.38;22.88;;;;;;;;;;2035147;29;20075;-74
2023/04/17 01:35:52;;;;;;;47.08;21.77;;;;;;;;;;2034048;29;20075;-73
2023/04/17 01:37:13;;;;;;;43.03;22.35;;;;;;;;;;2040308;29;20067;-74
2023/04/17 01:38:34;;;;;;;44.15;20.85;;;;;;;;;;2039941;29;20050;-74
2023/04/17 01:39:55;;;;;;;47.95;23.25;;;;;;;;;;2038697;29;20114;-74
2023/04/17 01:41:16;;;;;;;45.67;22.55;;;;;;;;;;2036233;29;20043;-73
2023/04/17 01:42:37;;;;;;;48.97;23.85;;;;;;;;;;2035061;29;20770;-73
2023/04/17 01:43:58;;;;;;;45.08;22.38;;;;;;;;;;2036861;29;20546;-74
2023/04/17 01:45:20;;;;;;;45.67;22.35;;;;;;;;;;2036161;28;20092;-74
2023/04/17 01:46:40;;;;;;;47.13;22.98;;;;;;;;;;2034329;29;20131;-74
2023/04/17 01:48:01;;;;;;;52.65;23.90;;;;;;;;;;2039955;29;20035;-73
2023/04/17 01:49:22;;;;;;;46.08;23.55;;;;;;;;;;2038345;29;20044;-73
2023/04/17 01:50:43;;;;;;;45.30;23.92;;;;;;;;;;2036753;29;20152;-73
2023/04/17 01:52:04;;;;;;;48.25;22.98;;;;;;;;;;2036809;29;20035;-74
2023/04/17 01:53:26;;;;;;;38.83;21.27;;;;;;;;;;2035295;29;20111;-74
2023/04/17 01:54:46;;;;;;;50.17;24.40;;;;;;;;;;2034377;29;20051;-73
2023/04/17 01:56:07;;;;;;;49.78;24.35;;;;;;;;;;2038510;29;20534;-74
2023/04/17 01:57:28;;;;;;;46.20;24.35;;;;;;;;;;2037056;29;20031;-74
2023/04/17 01:58:50;;;;;;;46.08;22.67;;;;;;;;;;2031460;29;20032;-73
2023/04/17 02:00:11;;;;;;;46.92;22.75;;;;;;;;;;2035876;29;20087;-74
2023/04/17 02:01:35;;;;;;;49.60;22.73;;;;;;;;;;2040309;29;20024;-74
2023/04/17 02:02:55;;;;;;;44.65;22.45;;;;;;;;;;2039657;29;20040;-73
2023/04/17 02:04:16;;;;;;;46.25;22.98;;;;;;;;;;2033124;29;20499;-74
2023/04/17 02:05:37;;;;;;;45.83;23.88;;;;;;;;;;2039299;28;20043;-74
2023/04/17 02:06:58;;;;;;;49.80;22.45;;;;;;;;;;2038399;29;20040;-74
2023/04/17 02:08:19;;;;;;;41.50;21.45;;;;;;;;;;2040117;29;20046;-74
2023/04/17 02:09:40;;;;;;;43.70;22.63;;;;;;;;;;2041027;29;20032;-74
2023/04/17 02:11:01;;;;;;;46.92;23.75;;;;;;;;;;2031353;29;20036;-74
2023/04/17 02:12:22;;;;;;;48.58;23.33;;;;;;;;;;2036124;29;20024;-74
2023/04/17 02:13:42;;;;;;;45.22;21.38;;;;;;;;;;2036702;29;20043;-74
2023/04/17 02:15:04;;;;;;;49.00;25.50;;;;;;;;;;2038765;28;20426;-74
2023/04/17 02:16:25;;;;;;;47.25;21.55;;;;;;;;;;2037726;29;20051;-73
2023/04/17 02:17:46;;;;;;;38.30;22.00;;;;;;;;;;2039026;29;20040;-74
2023/04/17 02:19:06;;;;;;;41.85;20.83;;;;;;;;;;2036815;29;20036;-73
2023/04/17 02:20:27;;;;;;;45.88;22.08;;;;;;;;;;2042183;29;20031;-73
2023/04/17 02:21:48;;;;;;;47.63;24.10;;;;;;;;;;2041003;29;20028;-73
2023/04/17 02:23:11;;;;;;;45.15;22.95;;;;;;;;;;2038867;29;20043;-74
2023/04/17 02:24:31;;;;;;;40.08;21.13;;;;;;;;;;2041405;29;20032;-73
2023/04/17 02:25:52;;;;;;;46.13;23.73;;;;;;;;;;2033166;28;20036;-73
2023/04/17 02:27:13;;;;;;;38.83;20.52;;;;;;;;;;2037767;29;20353;-73
2023/04/17 02:28:34;;;;;;;41.67;21.83;;;;;;;;;;2036072;29;20108;-73
2023/04/17 02:29:55;;;;;;;46.00;22.92;;;;;;;;;;2038840;29;20514;-74
2023/04/17 02:31:16;;;;;;;42.88;23.33;;;;;;;;;;2040368;29;20028;-74
2023/04/17 02:32:37;;;;;;;49.03;23.42;;;;;;;;;;2035624;29;20027;-74
2023/04/17 02:33:58;;;;;;;45.75;23.77;;;;;;;;;;2039976;29;20030;-74
2023/04/17 02:35:19;;;;;;;54.15;22.83;;;;;;;;;;2036643;28;20137;-74
2023/04/17 02:36:40;;;;;;;53.72;25.35;;;;;;;;;;2036478;29;20040;-74
2023/04/17 02:38:01;;;;;;;46.70;23.02;;;;;;;;;;2034757;29;20036;-74
2023/04/17 02:39:22;;;;;;;49.22;23.00;;;;;;;;;;2038091;29;20063;-74
2023/04/17 02:40:43;;;;;;;49.50;22.83;;;;;;;;;;2035450;29;20031;-74
2023/04/17 02:42:04;;;;;;;47.72;23.33;;;;;;;;;;2039644;29;20035;-74
2023/04/17 02:43:25;;;;;;;50.78;24.48;;;;;;;;;;2039090;29;20483;-74
2023/04/17 02:44:46;;;;;;;47.22;23.67;;;;;;;;;;2037319;29;20039;-75
2023/04/17 02:46:07;;;;;;;47.50;23.17;;;;;;;;;;2032219;29;20110;-82
2023/04/17 02:47:28;;;;;;;44.88;21.88;;;;;;;;;;2034220;29;20088;-83
2023/04/17 02:48:48;;;;;;;52.38;23.50;;;;;;;;;;2037983;29;20035;-83
2023/04/17 02:50:10;;;;;;;48.78;23.13;;;;;;;;;;2038107;29;20027;-84
2023/04/17 02:51:31;;;;;;;44.55;23.38;;;;;;;;;;2039480;29;20050;-83
2023/04/17 02:52:51;;;;;;;52.83;23.38;;;;;;;;;;2038514;29;20426;-81
2023/04/17 02:54:12;;;;;;;47.25;22.45;;;;;;;;;;2040058;29;20175;-85
2023/04/17 02:55:33;;;;;;;43.45;21.65;;;;;;;;;;2037417;28;20035;-83
2023/04/17 02:56:57;;;;;;;45.40;23.58;;;;;;;;;;2034082;29;20032;-85
2023/04/17 02:58:18;;;;;;;48.58;23.33;;;;;;;;;;2031364;29;20024;-84
2023/04/17 02:59:39;;;;;;;46.78;23.17;;;;;;;;;;2032634;29;20379;-86
2023/04/17 03:01:02;;;;;;;42.33;21.35;;;;;;;;;;2034865;29;20044;-84
2023/04/17 03:02:23;;;;;;;43.58;22.00;;;;;;;;;;2045603;29;20036;-84
2023/04/17 03:03:44;;;;;;;43.28;21.83;;;;;;;;;;2038076;29;20522;-82
2023/04/17 03:05:05;;;;;;;41.85;21.80;;;;;;;;;;2034375;29;20102;-86
2023/04/17 03:06:27;;;;;;;40.75;20.83;;;;;;;;;;2038639;29;20102;-85
2023/04/17 03:07:48;;;;;;;46.40;23.60;;;;;;;;;;2032553;29;20497;-83
2023/04/17 03:09:11;;;;;;;49.13;22.73;;;;;;;;;;2038906;29;20036;-83
2023/04/17 03:10:31;;;;;;;43.25;21.30;;;;;;;;;;2036357;29;20056;-83
2023/04/17 03:11:52;;;;;;;43.97;22.17;;;;;;;;;;2037011;29;20356;-82
2023/04/17 03:13:13;;;;;;;44.33;21.02;;;;;;;;;;2037822;29;20090;-86
2023/04/17 03:14:34;;;;;;;43.70;20.95;;;;;;;;;;2039529;29;20081;-84
2023/04/17 03:15:55;;;;;;;47.85;22.38;;;;;;;;;;2038058;28;20377;-85
2023/04/17 03:17:16;;;;;;;40.08;21.48;;;;;;;;;;2039336;29;20027;-86
2023/04/17 03:18:40;;;;;;;42.70;21.57;;;;;;;;;;2036631;29;20435;-85
2023/04/17 03:20:02;;;;;;;41.75;21.20;;;;;;;;;;2034890;29;20427;-82
2023/04/17 03:21:23;;;;;;;;;;;;;;;;;;2036834;29;20042;-85
2023/04/17 03:22:44;;;;;;;40.85;21.48;;;;;;;;;;2040406;29;19929;-85
2023/04/17 03:24:05;;;;;;;51.95;24.20;;;;;;;;;;2036692;29;20035;-84
2023/04/17 03:25:26;;;;;;;44.97;22.98;;;;;;;;;;2036826;28;20166;-84
2023/04/17 03:26:47;;;;;;;50.38;22.92;;;;;;;;;;2034495;29;20083;-84
2023/04/17 03:28:08;;;;;;;44.35;22.95;;;;;;;;;;2038281;29;20487;-85
2023/04/17 03:29:29;;;;;;;44.38;21.52;;;;;;;;;;2035849;29;20040;-85
2023/04/17 03:30:50;;;;;;;47.40;23.80;;;;;;;;;;2037837;29;20032;-86
2023/04/17 03:32:11;;;;;;;49.28;24.23;;;;;;;;;;2036964;29;20566;-83
2023/04/17 03:33:32;;;;;;;48.30;23.55;;;;;;;;;;2036877;29;20042;-83
2023/04/17 03:34:52;;;;;;;47.63;23.25;;;;;;;;;;2037300;29;20039;-83
2023/04/17 03:36:13;;;;;;;41.58;22.50;;;;;;;;;;2037079;29;20047;-83
2023/04/17 03:37:34;;;;;;;52.00;24.10;;;;;;;;;;2036035;29;20106;-83
2023/04/17 03:38:56;;;;;;;43.80;23.08;;;;;;;;;;2037168;29;20043;-83
2023/04/17 03:40:17;;;;;;;41.75;21.75;;;;;;;;;;2033797;29;20040;-83
2023/04/17 03:41:38;;;;;;;46.20;21.77;;;;;;;;;;2039423;29;20024;-84
2023/04/17 03:42:59;;;;;;;47.15;23.23;;;;;;;;;;2035759;29;20059;-84
2023/04/17 03:44:20;;;;;;;48.10;23.00;;;;;;;;;;2039210;29;20083;-84
2023/04/17 03:45:41;;;;;;;50.00;23.75;;;;;;;;;;2034999;28;20039;-84
2023/04/17 03:47:02;;;;;;;44.08;22.77;;;;;;;;;;2031036;29;20044;-85
2023/04/17 03:48:23;;;;;;;46.85;24.10;;;;;;;;;;2033767;29;20036;-84
2023/04/17 03:49:44;;;;;;;47.50;22.88;;;;;;;;;;2039173;29;20027;-84
2023/04/17 03:51:05;;;;;;;46.45;23.05;;;;;;;;;;2036978;29;20451;-84
2023/04/17 03:52:25;;;;;;;51.17;22.55;;;;;;;;;;2036754;29;20126;-85
2023/04/17 03:53:46;;;;;;;45.55;23.83;;;;;;;;;;2039511;29;20039;-84
2023/04/17 03:55:08;;;;;;;44.67;22.00;;;;;;;;;;2036044;29;20403;-84
2023/04/17 03:56:29;;;;;;;49.40;23.43;;;;;;;;;;2037965;29;20046;-83
2023/04/17 03:57:50;;;;;;;53.83;25.38;;;;;;;;;;2036624;29;20411;-85
2023/04/17 03:59:11;;;;;;;49.25;22.80;;;;;;;;;;2039678;29;20052;-84
2023/04/17 04:00:32;;;;;;;52.35;26.23;;;;;;;;;;2034077;29;20028;-85
2023/04/17 04:01:53;;;;;;;46.05;22.60;;;;;;;;;;2033873;29;20724;-85
2023/04/17 04:03:14;;;;;;;47.97;24.73;;;;;;;;;;2032781;29;21168;-84
2023/04/17 04:04:35;;;;;;;48.10;24.13;;;;;;;;;;2040250;29;20027;-84
2023/04/17 04:05:55;;;;;;;47.33;22.75;;;;;;;;;;2038534;28;20423;-83
2023/04/17 04:07:16;;;;;;;47.13;23.33;;;;;;;;;;2040007;29;20046;-84
2023/04/17 04:08:37;;;;;;;46.05;22.85;;;;;;;;;;2039091;29;20028;-84
2023/04/17 04:09:58;;;;;;;53.45;25.08;;;;;;;;;;2038505;29;20035;-85
2023/04/17 04:11:19;;;;;;;48.13;23.13;;;;;;;;;;2035343;29;20146;-84
2023/04/17 04:12:40;;;;;;;54.50;24.55;;;;;;;;;;2032983;29;20029;-84
2023/04/17 04:14:01;;;;;;;46.78;24.10;;;;;;;;;;2032299;29;20037;-84
2023/04/17 04:15:22;;;;;;;53.88;23.70;;;;;;;;;;2034229;29;20132;-84
2023/04/17 04:16:43;;;;;;;50.45;23.17;;;;;;;;;;2038805;29;20032;-84
2023/04/17 04:18:04;;;;;;;53.50;24.52;;;;;;;;;;2040045;29;20028;-84
2023/04/17 04:19:25;;;;;;;52.25;24.35;;;;;;;;;;2038297;29;20031;-84
2023/04/17 04:20:46;;;;;;;49.17;24.17;;;;;;;;;;2037605;29;20040;-85
2023/04/17 04:22:06;;;;;;;45.35;22.58;;;;;;;;;;2035362;29;20432;-85
2023/04/17 04:23:29;;;;;;;53.00;26.35;;;;;;;;;;2034147;29;20028;-85
2023/04/17 04:24:52;;;;;;;52.60;25.17;;;;;;;;;;2035767;29;20407;-84
2023/04/17 04:26:15;;;;;;;53.83;25.42;;;;;;;;;;2030358;28;20048;-84
2023/04/17 04:27:36;;;;;;;56.63;25.05;;;;;;;;;;2030784;29;20187;-84
2023/04/17 04:28:59;;;;;;;51.08;24.30;;;;;;;;;;2039555;29;20050;-84
2023/04/17 04:30:20;;;;;;;53.88;26.33;;;;;;;;;;2036379;29;20028;-84
2023/04/17 04:31:41;;;;;;;52.65;26.05;;;;;;;;;;2037717;29;20032;-84
2023/04/17 04:33:04;;;;;;;53.10;24.67;;;;;;;;;;2037553;29;20028;-83
2023/04/17 04:34:28;;;;;;;55.75;25.50;;;;;;;;;;2032014;29;20028;-83
2023/04/17 04:35:50;;;;;;;60.78;28.33;;;;;;;;;;2037928;28;20071;-84
2023/04/17 04:37:14;;;;;;;58.38;25.58;;;;;;;;;;2039875;29;20023;-83
2023/04/17 04:38:35;;;;;;;61.88;26.98;;;;;;;;;;2040829;29;20098;-83
2023/04/17 04:40:00;;;;;;;57.53;26.23;;;;;;;;;;2039086;29;20058;-84
2023/04/17 04:41:23;;;;;;;55.30;26.90;;;;;;;;;;2039189;29;20036;-83
2023/04/17 04:42:48;;;;;;;63.25;26.05;;;;;;;;;;2040790;29;20032;-84
2023/04/17 04:44:09;;;;;;;60.30;26.30;;;;;;;;;;2040257;29;20040;-83
2023/04/17 04:45:30;;;;;;;59.38;25.83;;;;;;;;;;2036325;29;20024;-84
2023/04/17 04:46:54;;;;;;;54.50;27.08;;;;;;;;;;2036225;29;20076;-84
2023/04/17 04:48:14;;;;;;;58.30;26.20;;;;;;;;;;2041097;29;20043;-84
2023/04/17 04:49:35;;;;;;;58.80;26.17;;;;;;;;;;2040323;29;20031;-84
2023/04/17 04:50:56;;;;;;;61.97;28.52;;;;;;;;;;2037121;29;20032;-83
2023/04/17 04:52:17;;;;;;;57.97;26.70;;;;;;;;;;2034631;29;20048;-84
2023/04/17 04:53:38;;;;;;;56.53;26.85;;;;;;;;;;2041085;29;20057;-84
2023/04/17 04:55:00;;;;;;;61.63;28.40;;;;;;;;;;2038724;29;20476;-84
2023/04/17 04:56:21;;;;;;;50.90;25.35;;;;;;;;;;2038462;28;20035;-85
2023/04/17 04:57:42;;;;;;;58.05;26.70;;;;;;;;;;2039356;29;20032;-83
2023/04/17 04:59:02;;;;;;;57.40;26.60;;;;;;;;;;2040405;29;20046;-83
2023/04/17 05:00:23;;;;;;;56.88;26.35;;;;;;;;;;2035685;29;20031;-84
2023/04/17 05:01:44;;;;;;;54.88;26.63;;;;;;;;;;2036614;29;20497;-84
2023/04/17 05:03:06;;;;;;;67.32;28.90;;;;;;;;;;2034524;29;20051;-84
2023/04/17 05:04:27;;;;;;;48.35;24.25;;;;;;;;;;2041262;29;20565;-84
2023/04/17 05:05:49;;;;;;;58.70;26.30;;;;;;;;;;2039690;28;20044;-83
2023/04/17 05:07:10;;;;;;;60.45;24.83;;;;;;;;;;2038932;29;20419;-83
2023/04/17 05:08:31;;;;;;;58.53;26.55;;;;;;;;;;2040359;29;20031;-85
2023/04/17 05:09:52;;;;;;;60.33;28.20;;;;;;;;;;2039240;29;20091;-83
2023/04/17 05:11:13;;;;;;;57.35;25.95;;;;;;;;;;2034027;29;20034;-84
2023/04/17 05:12:34;;;;;;;55.72;25.98;;;;;;;;;;2036926;29;20031;-84
2023/04/17 05:13:55;;;;;;;58.22;25.67;;;;;;;;;;2041031;29;20111;-84
2023/04/17 05:15:16;;;;;;;57.03;26.52;;;;;;;;;;2034760;29;20132;-83
2023/04/17 05:16:37;;;;;;;58.58;26.92;;;;;;;;;;2037990;29;20112;-84
2023/04/17 05:17:58;;;;;;;72.15;30.00;;;;;;;;;;2038177;29;20042;-84
2023/04/17 05:19:19;;;;;;;52.33;25.58;;;;;;;;;;2032932;29;20143;-83
2023/04/17 05:20:40;;;;;;;53.17;24.88;;;;;;;;;;2039225;29;20114;-84
2023/04/17 05:22:00;;;;;;;62.63;26.73;;;;;;;;;;2037542;29;20032;-83
2023/04/17 05:23:21;;;;;;;57.58;26.60;;;;;;;;;;2033194;29;20040;-84
2023/04/17 05:24:42;;;;;;;53.10;26.50;;;;;;;;;;2037994;29;20082;-84
2023/04/17 05:26:04;;;;;;;62.33;28.42;;;;;;;;;;2036976;28;20079;-84
2023/04/17 05:27:25;;;;;;;56.78;26.33;;;;;;;;;;2038786;29;20098;-84
2023/04/17 05:28:46;;;;;;;60.45;27.33;;;;;;;;;;2037600;29;20032;-84
2023/04/17 05:30:07;;;;;;;62.83;25.58;;;;;;;;;;2033300;29;20040;-84
2023/04/17 05:31:28;;;;;;;56.28;25.15;;;;;;;;;;2041796;29;20391;-84
2023/04/17 05:32:50;;;;;;;69.60;28.05;;;;;;;;;;2036518;29;20036;-84
2023/04/17 05:34:11;;;;;;;66.85;30.25;;;;;;;;;;2035334;29;20475;-84
2023/04/17 05:35:32;;;;;;;63.05;27.52;;;;;;;;;;2039585;29;20036;-84
2023/04/17 05:36:53;;;;;;;64.18;27.90;;;;;;;;;;2041361;29;20101;-85
2023/04/17 05:38:14;;;;;;;52.00;23.88;;;;;;;;;;2038890;29;20027;-84
2023/04/17 05:39:35;;;;;;;60.60;26.58;;;;;;;;;;2029652;29;20043;-83
2023/04/17 05:40:55;;;;;;;55.85;24.45;;;;;;;;;;2038909;29;20084;-83
2023/04/17 05:42:16;;;;;;;57.58;26.30;;;;;;;;;;2039727;29;20303;-83
2023/04/17 05:43:37;;;;;;;63.78;28.10;;;;;;;;;;2034754;29;20087;-83
2023/04/17 05:44:58;;;;;;;66.15;28.52;;;;;;;;;;2034613;29;20048;-83
2023/04/17 05:46:19;;;;;;;65.13;28.05;;;;;;;;;;2037017;29;20047;-83
2023/04/17 05:47:40;;;;;;;66.22;27.58;;;;;;;;;;2033554;29;20031;-83
2023/04/17 05:49:01;;;;;;;61.47;27.00;;;;;;;;;;2033061;29;20058;-83
2023/04/17 05:50:22;;;;;;;60.70;26.35;;;;;;;;;;2038996;29;20071;-84
2023/04/17 05:51:43;;;;;;;60.85;26.10;;;;;;;;;;2033404;29;20028;-79
2023/04/17 05:53:04;;;;;;;62.70;27.88;;;;;;;;;;2035510;29;20537;-79
2023/04/17 05:54:26;;;;;;;56.58;26.30;;;;;;;;;;2037519;29;20107;-79
2023/04/17 05:55:47;;;;;;;57.03;26.80;;;;;;;;;;2032407;29;20028;-79
2023/04/17 05:57:08;;;;;;;58.53;26.45;;;;;;;;;;2035184;29;20036;-79
2023/04/17 05:58:29;;;;;;;53.60;24.55;;;;;;;;;;2035161;29;20035;-79
2023/04/17 05:59:50;;;;;;;54.90;24.92;;;;;;;;;;2033463;29;20080;-79
2023/04/17 06:01:11;;;;;;;57.63;26.48;;;;;;;;;;2039908;29;20480;-79
2023/04/17 06:02:32;;;;;;;58.10;27.20;;;;;;;;;;2039486;29;20032;-79
2023/04/17 06:03:53;;;;;;;60.40;27.58;;;;;;;;;;2039070;29;20454;-79
2023/04/17 06:05:15;;;;;;;57.40;25.85;;;;;;;;;;2040138;29;20028;-79
2023/04/17 06:06:36;;;;;;;60.92;27.40;;;;;;;;;;2037516;28;20040;-79
2023/04/17 06:07:57;;;;;;;57.55;25.88;;;;;;;;;;2033040;29;20114;-79
2023/04/17 06:09:18;;;;;;;65.82;27.75;;;;;;;;;;2037265;29;20159;-79
2023/04/17 06:10:39;;;;;;;59.22;27.35;;;;;;;;;;2036244;29;20467;-79
2023/04/17 06:11:59;;;;;;;58.15;24.67;;;;;;;;;;2037304;29;20080;-79
2023/04/17 06:13:21;;;;;;;59.45;28.20;;;;;;;;;;2036265;29;20035;-78
2023/04/17 06:14:42;;;;;;;53.35;26.30;;;;;;;;;;2029601;29;20036;-80
2023/04/17 06:16:03;;;;;;;64.78;27.75;;;;;;;;;;2036193;29;20028;-78
2023/04/17 06:17:24;;;;;;;57.97;26.83;;;;;;;;;;2036252;29;20448;-79
2023/04/17 06:18:45;;;;;;;62.55;26.92;;;;;;;;;;2037902;29;20043;-79
2023/04/17 06:20:09;;;;;;;69.22;29.88;;;;;;;;;;2040441;29;20044;-79
2023/04/17 06:21:30;;;;;;;61.58;27.65;;;;;;;;;;2040397;29;20032;-79
2023/04/17 06:22:51;;;;;;;54.22;25.38;;;;;;;;;;2037902;29;20083;-79
2023/04/17 06:24:12;;;;;;;53.70;26.38;;;;;;;;;;2037097;29;20023;-78
2023/04/17 06:25:33;;;;;;;58.50;26.38;;;;;;;;;;2037268;29;20031;-77
2023/04/17 06:26:55;;;;;;;58.83;26.67;;;;;;;;;;2035990;28;20515;-79
2023/04/17 06:28:16;;;;;;;59.22;27.33;;;;;;;;;;2036461;29;20436;-78
2023/04/17 06:29:37;;;;;;;58.47;26.85;;;;;;;;;;2037583;29;20040;-79
2023/04/17 06:30:58;;;;;;;54.65;27.42;;;;;;;;;;2039102;29;20039;-78
2023/04/17 06:32:19;;;;;;;59.78;26.75;;;;;;;;;;2033716;29;20445;-79
2023/04/17 06:33:40;;;;;;;57.50;26.98;;;;;;;;;;2043352;28;20070;-78
2023/04/17 06:35:01;;;;;;;59.83;28.48;;;;;;;;;;2040777;29;20503;-79
2023/04/17 06:36:22;;;;;;;61.47;27.63;;;;;;;;;;2034731;28;20040;-77
2023/04/17 06:37:42;;;;;;;58.17;28.65;;;;;;;;;;2036969;29;20036;-78
2023/04/17 06:39:03;;;;;;;55.33;27.55;;;;;;;;;;2034289;29;20434;-78
2023/04/17 06:40:24;;;;;;;56.75;27.05;;;;;;;;;;2038295;29;20032;-78
2023/04/17 06:41:47;;;;;;;58.58;27.95;;;;;;;;;;2038185;29;20128;-80
2023/04/17 06:43:08;;;;;;;62.92;28.83;;;;;;;;;;2035228;29;20047;-79
2023/04/17 06:44:29;;;;;;;51.90;25.65;;;;;;;;;;2035424;29;20086;-79
2023/04/17 06:45:49;;;;;;;58.80;28.48;;;;;;;;;;2035269;29;20487;-79
2023/04/17 06:47:10;;;;;;;53.97;26.38;;;;;;;;;;2036158;29;20070;-78
2023/04/17 06:48:31;;;;;;;55.70;25.60;;;;;;;;;;2038021;29;20039;-78
2023/04/17 06:49:52;;;;;;;55.40;26.05;;;;;;;;;;2032565;29;20500;-78
2023/04/17 06:51:13;;;;;;;65.60;28.92;;;;;;;;;;2035070;29;20054;-78
2023/04/17 06:52:34;;;;;;;57.42;26.58;;;;;;;;;;2040904;29;20027;-76
2023/04/17 06:53:55;;;;;;;67.13;28.88;;;;;;;;;;2036498;29;20028;-76
2023/04/17 06:55:16;;;;;;;51.95;26.15;;;;;;;;;;2042861;29;20047;-76
2023/04/17 06:56:37;;;;;;;51.85;25.85;;;;;;;;;;2038576;28;20387;-76
2023/04/17 06:57:57;;;;;;;50.33;25.02;;;;;;;;;;2036914;29;20039;-76
2023/04/17 06:59:18;;;;;;;56.67;27.80;;;;;;;;;;2037415;29;20028;-76
2023/04/17 07:00:39;;;;;;;59.50;26.33;;;;;;;;;;2034061;29;20020;-76
2023/04/17 07:02:03;;;;;;;57.83;28.08;;;;;;;;;;2034271;29;20031;-77
2023/04/17 07:03:24;;;;;;;56.70;27.55;;;;;;;;;;2035308;29;20044;-75
2023/04/17 07:04:45;;;;;;;58.08;29.65;;;;;;;;;;2035727;29;20024;-76
2023/04/17 07:06:06;;;;;;;66.90;29.75;;;;;;;;;;2037790;28;20511;-75
2023/04/17 07:07:29;;;;;;;69.72;29.73;;;;;;;;;;2031746;29;20048;-75
2023/04/17 07:08:50;;;;;;;59.03;28.55;;;;;;;;;;2037200;28;20079;-75
2023/04/17 07:10:11;;;;;;;58.97;28.13;;;;;;;;;;2036079;29;20110;-75
2023/04/17 07:11:32;;;;;;;67.63;30.17;;;;;;;;;;2033047;29;20039;-75
2023/04/17 07:12:53;;;;;;;57.45;27.88;;;;;;;;;;2036490;29;20099;-75
2023/04/17 07:14:15;;;;;;;63.20;28.85;;;;;;;;;;2034163;29;20032;-75
2023/04/17 07:15:36;;;;;;;64.68;29.38;;;;;;;;;;2040487;29;20487;-75
2023/04/17 07:16:57;;;;;;;57.40;28.65;;;;;;;;;;2039706;28;20161;-75
2023/04/17 07:18:18;;;;;;;56.63;26.38;;;;;;;;;;2036695;29;20057;-77
2023/04/17 07:19:39;;;;;;;57.20;26.40;;;;;;;;;;2035359;29;20028;-75
2023/04/17 07:21:01;;;;;;;54.92;27.48;;;;;;;;;;2033894;29;20055;-75
2023/04/17 07:22:22;;;;;;;66.47;29.83;;;;;;;;;;2034291;29;21090;-75
2023/04/17 07:23:43;;;;;;;56.13;28.33;;;;;;;;;;2035640;29;20163;-75
2023/04/17 07:25:04;;;;;;;52.00;24.77;;;;;;;;;;2038197;29;20035;-75
2023/04/17 07:26:25;;;;;;;55.45;28.13;;;;;;;;;;2036053;29;20091;-75
2023/04/17 07:27:46;;;;;;;53.72;25.85;;;;;;;;;;2038235;29;20461;-75
2023/04/17 07:29:07;;;;;;;51.15;26.85;;;;;;;;;;2036351;29;20032;-75
2023/04/17 07:30:28;;;;;;;57.60;26.75;;;;;;;;;;2035440;29;20514;-75
2023/04/17 07:31:49;;;;;;;64.57;28.92;;;;;;;;;;2035756;29;20451;-75
2023/04/17 07:33:10;;;;;;;53.47;26.13;;;;;;;;;;2038194;29;20040;-75
2023/04/17 07:34:33;;;;;;;52.78;25.52;;;;;;;;;;2037574;29;20035;-75
2023/04/17 07:35:54;;;;;;;69.65;29.92;;;;;;;;;;2030872;29;20027;-77
2023/04/17 07:37:16;;;;;;;52.40;26.88;;;;;;;;;;2033671;28;20040;-80
2023/04/17 07:38:37;;;;;;;48.65;24.40;;;;;;;;;;2035816;29;20047;-76
2023/04/17 07:39:58;;;;;;;57.40;24.77;;;;;;;;;;2033770;29;20409;-77
2023/04/17 07:41:19;;;;;;;50.03;24.65;;;;;;;;;;2037586;29;20032;-76
2023/04/17 07:42:44;;;;;;;51.53;24.77;;;;;;;;;;2035324;29;20095;-74
2023/04/17 07:44:05;;;;;;;50.75;24.63;;;;;;;;;;2036247;29;20035;-75
2023/04/17 07:45:27;;;;;;;54.70;27.30;;;;;;;;;;2034894;29;20027;-75
2023/04/17 07:46:48;;;;;;;63.17;25.70;;;;;;;;;;2034653;29;20396;-75
2023/04/17 07:48:09;;;;;;;60.58;26.75;;;;;;;;;;2032310;29;20036;-75
2023/04/17 07:49:30;;;;;;;52.00;26.08;;;;;;;;;;2031980;29;20511;-75
2023/04/17 07:50:51;;;;;;;51.40;25.02;;;;;;;;;;2039369;29;20020;-78
2023/04/17 07:52:14;;;;;;;52.80;23.58;;;;;;;;;;2035923;29;20063;-76
2023/04/17 07:53:36;;;;;;;62.58;26.13;;;;;;;;;;2036882;29;20119;-75
2023/04/17 07:54:56;;;;;;;60.83;27.42;;;;;;;;;;2038231;29;20103;-76